createdAt,value
2022-10-05T00:02:20.385Z,68.32
2022-10-05T00:04:48.248Z,68.83
2022-10-05T00:07:19.501Z,68.30
2022-10-05T00:09:54.285Z,68.71
2022-10-05T00:12:21.881Z,68.99
2022-10-05T00:14:50.465Z,69.25
2022-10-05T00:17:21.120Z,69.18
2022-10-05T00:19:52.109Z,68.72
2022-10-05T00:22:21.202Z,69.61
2022-10-05T00:24:50.562Z,69.33
2022-10-05T00:27:26.125Z,69.74
2022-10-05T00:29:54.309Z,68.32
2022-10-05T00:32:20.755Z,68.40
2022-10-05T00:34:47.390Z,69.42
2022-10-05T00:37:14.261Z,68.90
2022-10-05T00:39:41.641Z,68.55
2022-10-05T00:42:25.167Z,69.15
2022-10-05T00:44:56.187Z,68.65
2022-10-05T00:48:02.922Z,68.39
2022-10-05T00:50:47.948Z,69.18
2022-10-05T00:53:29.630Z,68.90
2022-10-05T00:56:36.919Z,68.21
2022-10-05T00:59:22.321Z,68.57
2022-10-05T01:02:04.918Z,69.38
2022-10-05T01:05:04.603Z,68.49
2022-10-05T01:07:46.177Z,68.42
2022-10-05T01:10:22.652Z,69.83
2022-10-05T01:12:57.938Z,69.79
2022-10-05T01:15:29.127Z,69.68
2022-10-05T01:18:21.284Z,69.11
2022-10-05T01:20:57.257Z,68.87
2022-10-05T01:23:36.000Z,68.85
2022-10-05T01:26:24.523Z,68.54
2022-10-05T01:29:06.863Z,68.88
2022-10-05T01:31:41.775Z,69.14
2022-10-05T01:34:27.434Z,68.94
2022-10-05T01:37:01.396Z,69.03
2022-10-05T01:39:43.102Z,68.65
2022-10-05T01:42:35.589Z,69.06
2022-10-05T01:45:10.026Z,68.93
2022-10-05T01:47:43.414Z,70.07
2022-10-05T01:50:45.673Z,69.06
2022-10-05T01:53:30.666Z,68.98
2022-10-05T01:56:27.919Z,69.89
2022-10-05T01:59:08.096Z,69.32
2022-10-05T02:01:34.532Z,69.83
2022-10-05T02:04:09.424Z,69.27
2022-10-05T02:06:41.716Z,70.22
2022-10-05T02:09:20.853Z,69.93
2022-10-05T02:11:55.253Z,69.61
2022-10-05T02:14:25.990Z,69.61
2022-10-05T02:16:54.171Z,69.25
2022-10-05T02:19:25.371Z,69.16
2022-10-05T02:22:02.335Z,69.73
2022-10-05T02:24:33.945Z,70.17
2022-10-05T02:27:01.455Z,69.73
2022-10-05T02:29:31.018Z,69.83
2022-10-05T02:32:00.847Z,69.54
2022-10-05T02:34:41.538Z,69.49
2022-10-05T02:37:45.844Z,70.42
2022-10-05T02:40:25.410Z,70.30
2022-10-05T02:43:10.274Z,69.66
2022-10-05T02:46:12.357Z,70.85
2022-10-05T02:48:41.994Z,70.18
2022-10-05T02:51:26.149Z,70.76
2022-10-05T02:54:16.399Z,70.18
2022-10-05T02:57:15.739Z,70.33
2022-10-05T02:59:56.792Z,70.12
2022-10-05T03:03:04.798Z,69.77
2022-10-05T03:05:43.475Z,70.90
2022-10-05T03:08:20.968Z,70.66
2022-10-05T03:11:21.724Z,70.87
2022-10-05T03:13:55.852Z,70.56
2022-10-05T03:16:28.378Z,70.99
2022-10-05T03:19:05.456Z,70.46
2022-10-05T03:21:43.206Z,71.49
2022-10-05T03:24:30.084Z,71.28
2022-10-05T03:27:05.978Z,71.68
2022-10-05T03:29:50.241Z,71.90
2022-10-05T03:32:22.930Z,71.36
2022-10-05T03:35:17.787Z,71.85
2022-10-05T03:37:49.090Z,71.16
2022-10-05T03:40:38.787Z,70.51
2022-10-05T03:43:29.863Z,70.77
2022-10-05T03:46:14.868Z,71.33
2022-10-05T03:49:30.071Z,71.22
2022-10-05T03:52:02.424Z,71.10
2022-10-05T03:54:29.044Z,70.95
2022-10-05T03:56:58.136Z,71.54
2022-10-05T03:59:32.999Z,71.33
2022-10-05T04:02:06.303Z,72.06
2022-10-05T04:04:45.452Z,71.64
2022-10-05T04:07:26.079Z,71.35
2022-10-05T04:09:53.253Z,70.71
2022-10-05T04:12:26.418Z,71.14
2022-10-05T04:15:09.130Z,70.89
2022-10-05T04:18:05.837Z,71.67
2022-10-05T04:20:38.306Z,70.76
2022-10-05T04:23:15.005Z,70.75
2022-10-05T04:25:45.379Z,71.69
2022-10-05T04:28:29.668Z,70.86
2022-10-05T04:31:00.298Z,71.39
2022-10-05T04:33:27.406Z,70.05
2022-10-05T04:36:02.987Z,70.14
2022-10-05T04:38:53.045Z,69.96
2022-10-05T04:41:25.681Z,71.06
2022-10-05T04:44:01.286Z,70.84
2022-10-05T04:46:42.996Z,69.76
2022-10-05T04:49:27.239Z,71.43
2022-10-05T04:52:01.659Z,70.91
2022-10-05T04:54:56.005Z,70.87
2022-10-05T04:57:44.004Z,71.44
2022-10-05T05:00:26.993Z,71.72
2022-10-05T05:03:23.817Z,71.42
2022-10-05T05:06:16.985Z,71.18
2022-10-05T05:09:05.039Z,71.58
2022-10-05T05:12:01.301Z,72.05
2022-10-05T05:14:56.005Z,71.82
2022-10-05T05:17:41.144Z,71.72
2022-10-05T05:20:25.921Z,71.92
2022-10-05T05:22:59.503Z,71.97
2022-10-05T05:25:55.248Z,71.23
2022-10-05T05:28:39.453Z,71.76
2022-10-05T05:31:33.965Z,72.05
2022-10-05T05:34:23.308Z,71.62
2022-10-05T05:37:11.142Z,72.00
2022-10-05T05:39:42.819Z,73.63
2022-10-05T05:42:21.590Z,72.61
2022-10-05T05:44:52.247Z,71.70
2022-10-05T05:47:37.758Z,72.17
2022-10-05T05:50:32.424Z,72.38
2022-10-05T05:53:03.796Z,72.87
2022-10-05T05:55:36.304Z,73.23
2022-10-05T05:58:26.091Z,72.49
2022-10-05T06:01:04.360Z,72.37
2022-10-05T06:03:47.184Z,72.07
2022-10-05T06:06:16.866Z,72.64
2022-10-05T06:08:46.325Z,72.81
2022-10-05T06:11:23.971Z,72.13
2022-10-05T06:13:51.189Z,73.94
2022-10-05T06:16:53.818Z,73.03
2022-10-05T06:19:22.737Z,72.57
2022-10-05T06:21:58.525Z,73.61
2022-10-05T06:24:57.468Z,73.11
2022-10-05T06:27:34.993Z,73.27
2022-10-05T06:30:31.900Z,73.06
2022-10-05T06:33:45.553Z,72.62
2022-10-05T06:36:50.467Z,73.03
2022-10-05T06:39:41.487Z,73.39
2022-10-05T06:42:17.056Z,72.91
2022-10-05T06:44:53.541Z,73.09
2022-10-05T06:47:43.544Z,73.32
2022-10-05T06:50:19.501Z,72.75
2022-10-05T06:53:12.742Z,73.80
2022-10-05T06:55:48.746Z,74.59
2022-10-05T06:58:43.096Z,73.33
2022-10-05T07:01:43.624Z,73.39
2022-10-05T07:04:30.457Z,73.13
2022-10-05T07:07:17.252Z,72.51
2022-10-05T07:10:07.871Z,74.43
2022-10-05T07:13:00.664Z,73.10
2022-10-05T07:15:56.594Z,72.17
2022-10-05T07:18:23.086Z,72.29
2022-10-05T07:21:00.345Z,73.38
2022-10-05T07:23:41.517Z,73.04
2022-10-05T07:26:20.974Z,72.99
2022-10-05T07:29:06.951Z,73.78
2022-10-05T07:31:40.610Z,73.45
2022-10-05T07:34:10.472Z,73.37
2022-10-05T07:37:21.362Z,73.91
2022-10-05T07:40:00.448Z,74.16
2022-10-05T07:42:48.962Z,73.55
2022-10-05T07:45:31.113Z,72.35
2022-10-05T07:48:01.663Z,71.71
2022-10-05T07:50:37.347Z,71.65
2022-10-05T07:53:29.028Z,72.98
2022-10-05T07:56:00.437Z,72.24
2022-10-05T07:58:57.224Z,71.15
2022-10-05T08:01:27.026Z,71.64
2022-10-05T08:04:03.463Z,71.96
2022-10-05T08:06:53.399Z,70.99
2022-10-05T08:09:29.038Z,71.11
2022-10-05T08:12:02.830Z,70.18
2022-10-05T08:14:52.508Z,70.71
2022-10-05T08:17:25.637Z,70.59
2022-10-05T08:20:19.653Z,70.57
2022-10-05T08:22:49.465Z,70.46
2022-10-05T08:25:54.014Z,71.00
2022-10-05T08:28:28.565Z,71.55
2022-10-05T08:30:59.635Z,72.05
2022-10-05T08:33:27.890Z,71.06
2022-10-05T08:36:13.669Z,70.82
2022-10-05T08:38:40.543Z,70.38
2022-10-05T08:41:57.590Z,70.85
2022-10-05T08:44:49.699Z,70.35
2022-10-05T08:47:28.083Z,72.21
2022-10-05T08:50:23.290Z,70.38
2022-10-05T08:53:07.658Z,69.07
2022-10-05T08:55:40.734Z,70.46
2022-10-05T08:58:33.019Z,71.22
2022-10-05T09:01:37.901Z,70.55
2022-10-05T09:04:25.317Z,70.29
2022-10-05T09:06:57.834Z,69.52
2022-10-05T09:09:43.012Z,69.89
2022-10-05T09:13:04.055Z,68.76
2022-10-05T09:16:11.753Z,69.24
2022-10-05T09:18:56.962Z,69.27
2022-10-05T09:21:43.163Z,69.83
2022-10-05T09:24:12.517Z,69.87
2022-10-05T09:27:28.520Z,69.89
2022-10-05T09:30:20.658Z,69.03
2022-10-05T09:33:13.737Z,69.59
2022-10-05T09:36:12.386Z,68.94
2022-10-05T09:38:50.900Z,70.38
2022-10-05T09:41:49.951Z,69.70
2022-10-05T09:44:31.661Z,69.04
2022-10-05T09:47:16.341Z,68.91
2022-10-05T09:49:50.289Z,69.05
2022-10-05T09:52:52.414Z,68.23
2022-10-05T09:55:39.294Z,69.43
2022-10-05T09:58:28.499Z,68.54
2022-10-05T10:01:09.080Z,68.18
2022-10-05T10:04:10.060Z,69.26
2022-10-05T10:07:04.582Z,69.57
2022-10-05T10:10:10.363Z,67.78
2022-10-05T10:13:00.134Z,70.95
2022-10-05T10:15:45.471Z,71.55
2022-10-05T10:18:43.068Z,70.92
2022-10-05T10:21:24.750Z,70.02
2022-10-05T10:24:08.457Z,68.60
2022-10-05T10:26:42.462Z,69.62
2022-10-05T10:29:37.668Z,69.01
2022-10-05T10:32:41.901Z,69.27
2022-10-05T10:35:22.884Z,68.82
2022-10-05T10:37:52.476Z,68.63
2022-10-05T10:40:34.970Z,67.40
2022-10-05T10:43:22.169Z,67.43
2022-10-05T10:45:58.178Z,66.00
2022-10-05T10:48:30.980Z,66.86
2022-10-05T10:51:06.451Z,67.25
2022-10-05T10:53:50.845Z,66.18
2022-10-05T10:56:28.308Z,68.33
2022-10-05T10:59:19.764Z,67.99
2022-10-05T11:01:46.511Z,66.89
2022-10-05T11:04:28.188Z,66.96
2022-10-05T11:07:21.576Z,66.98
2022-10-05T11:10:16.316Z,68.20
2022-10-05T11:12:58.582Z,66.21
2022-10-05T11:16:01.526Z,65.94
2022-10-05T11:18:40.194Z,66.41
2022-10-05T11:21:34.257Z,67.34
2022-10-05T11:24:19.611Z,65.81
2022-10-05T11:27:12.570Z,67.71
2022-10-05T11:30:13.405Z,66.71
2022-10-05T11:32:58.595Z,66.05
2022-10-05T11:36:01.262Z,66.08
2022-10-05T11:38:48.304Z,65.50
2022-10-05T11:41:44.712Z,66.46
2022-10-05T11:44:17.312Z,66.31
2022-10-05T11:46:53.464Z,67.40
2022-10-05T11:50:05.494Z,67.85
2022-10-05T11:52:56.992Z,66.32
2022-10-05T11:55:57.793Z,67.96
2022-10-05T11:58:50.450Z,65.96
2022-10-05T12:01:29.185Z,67.60
2022-10-05T12:04:17.350Z,67.33
2022-10-05T12:07:14.977Z,67.75
2022-10-05T12:10:17.487Z,66.89
2022-10-05T12:12:45.112Z,65.44
2022-10-05T12:15:20.149Z,66.54
2022-10-05T12:18:15.742Z,66.64
2022-10-05T12:21:15.745Z,66.00
2022-10-05T12:24:01.016Z,66.71
2022-10-05T12:26:41.565Z,66.73
2022-10-05T12:29:21.572Z,66.38
2022-10-05T12:32:06.387Z,66.23
2022-10-05T12:34:39.018Z,65.82
2022-10-05T12:37:46.705Z,65.86
2022-10-05T12:40:27.381Z,67.64
2022-10-05T12:43:00.544Z,65.93
2022-10-05T12:45:39.169Z,65.92
2022-10-05T12:48:21.828Z,65.81
2022-10-05T12:50:57.386Z,65.73
2022-10-05T12:54:04.679Z,65.69
2022-10-05T12:56:44.810Z,64.75
2022-10-05T12:59:34.641Z,64.63
2022-10-05T13:02:30.169Z,66.51
2022-10-05T13:05:23.364Z,67.23
2022-10-05T13:08:10.537Z,66.14
2022-10-05T13:11:03.601Z,65.99
2022-10-05T13:13:48.261Z,65.69
2022-10-05T13:16:17.889Z,66.50
2022-10-05T13:19:15.036Z,66.40
2022-10-05T13:21:53.661Z,66.39
2022-10-05T13:24:24.726Z,66.72
2022-10-05T13:27:00.566Z,66.44
2022-10-05T13:29:59.557Z,66.23
2022-10-05T13:32:27.506Z,66.45
2022-10-05T13:35:00.027Z,64.94
2022-10-05T13:37:32.266Z,67.18
2022-10-05T13:40:14.928Z,67.11
2022-10-05T13:42:57.962Z,66.76
2022-10-05T13:45:26.556Z,65.89
2022-10-05T13:47:56.064Z,65.95
2022-10-05T13:50:29.719Z,66.35
2022-10-05T13:53:18.403Z,65.82
2022-10-05T13:55:56.168Z,66.86
2022-10-05T13:58:54.217Z,65.38
2022-10-05T14:01:35.404Z,66.45
2022-10-05T14:04:20.787Z,66.25
2022-10-05T14:06:48.499Z,65.83
2022-10-05T14:09:31.477Z,65.59
2022-10-05T14:12:03.942Z,66.03
2022-10-05T14:14:43.535Z,66.16
2022-10-05T14:17:16.427Z,65.83
2022-10-05T14:19:47.276Z,66.37
2022-10-05T14:22:22.440Z,65.99
2022-10-05T14:25:03.954Z,65.99
2022-10-05T14:27:55.640Z,66.00
2022-10-05T14:30:27.060Z,65.55
2022-10-05T14:33:05.745Z,67.34
2022-10-05T14:35:48.978Z,66.41
2022-10-05T14:38:48.771Z,66.98
2022-10-05T14:41:25.431Z,65.48
2022-10-05T14:44:15.416Z,66.96
2022-10-05T14:46:54.695Z,67.15
2022-10-05T14:49:25.738Z,66.64
2022-10-05T14:51:53.495Z,65.81
2022-10-05T14:54:37.030Z,65.67
2022-10-05T14:57:30.754Z,65.97
2022-10-05T15:00:04.494Z,65.41
2022-10-05T15:03:04.397Z,65.51
2022-10-05T15:06:14.214Z,64.74
2022-10-05T15:08:51.789Z,65.49
2022-10-05T15:11:25.750Z,64.71
2022-10-05T15:13:52.782Z,64.58
2022-10-05T15:16:20.895Z,66.40
2022-10-05T15:19:28.298Z,66.46
2022-10-05T15:22:05.697Z,67.27
2022-10-05T15:24:43.731Z,67.51
2022-10-05T15:27:21.848Z,66.23
2022-10-05T15:29:57.731Z,67.51
2022-10-05T15:32:33.171Z,67.11
2022-10-05T15:35:18.562Z,65.11
2022-10-05T15:37:49.877Z,65.34
2022-10-05T15:41:01.393Z,66.36
2022-10-05T15:43:39.046Z,66.92
2022-10-05T15:46:11.037Z,67.59
2022-10-05T15:48:59.267Z,65.63
2022-10-05T15:51:35.613Z,67.29
2022-10-05T15:54:36.067Z,66.35
2022-10-05T15:57:28.586Z,66.86
2022-10-05T16:00:17.413Z,67.66
2022-10-05T16:02:59.230Z,66.83
2022-10-05T16:05:56.909Z,67.02
2022-10-05T16:08:50.533Z,67.11
2022-10-05T16:11:41.413Z,67.96
2022-10-05T16:14:27.950Z,67.64
2022-10-05T16:17:00.618Z,67.61
2022-10-05T16:19:42.378Z,67.98
2022-10-05T16:22:22.312Z,68.19
2022-10-05T16:25:07.419Z,67.84
2022-10-05T16:28:02.974Z,67.70
2022-10-05T16:30:43.537Z,67.59
2022-10-05T16:33:18.823Z,68.35
2022-10-05T16:36:19.511Z,68.36
2022-10-05T16:38:48.459Z,68.70
2022-10-05T16:41:29.609Z,68.31
2022-10-05T16:44:09.948Z,68.47
2022-10-05T16:46:53.776Z,68.29
2022-10-05T16:49:47.164Z,68.04
2022-10-05T16:52:18.911Z,68.29
2022-10-05T16:54:49.691Z,68.91
2022-10-05T16:57:22.057Z,68.08
2022-10-05T17:00:17.749Z,69.24
2022-10-05T17:02:50.344Z,69.83
2022-10-05T17:05:30.510Z,69.32
2022-10-05T17:08:36.672Z,70.10
2022-10-05T17:11:05.919Z,69.75
2022-10-05T17:13:53.588Z,69.95
2022-10-05T17:16:23.614Z,71.35
2022-10-05T17:19:15.368Z,70.19
2022-10-05T17:21:49.734Z,70.87
2022-10-05T17:24:24.180Z,70.63
2022-10-05T17:27:21.689Z,71.03
2022-10-05T17:29:51.878Z,72.05
2022-10-05T17:32:18.328Z,70.91
2022-10-05T17:35:03.102Z,70.17
2022-10-05T17:37:36.309Z,71.08
2022-10-05T17:40:35.360Z,70.81
2022-10-05T17:43:17.158Z,70.49
2022-10-05T17:45:43.578Z,70.31
2022-10-05T17:48:11.672Z,69.60
2022-10-05T17:51:02.417Z,70.38
2022-10-05T17:53:57.511Z,69.60
2022-10-05T17:56:26.449Z,69.09
2022-10-05T18:02:14.227Z,70.72
2022-10-05T18:04:42.261Z,69.53
2022-10-05T18:07:18.401Z,69.75
2022-10-05T18:09:55.299Z,68.49
2022-10-05T18:12:21.900Z,69.45
2022-10-05T18:15:06.805Z,69.76
2022-10-05T18:17:51.174Z,70.38
2022-10-05T18:20:23.837Z,69.18
2022-10-05T18:22:53.328Z,69.59
2022-10-05T18:25:27.155Z,69.55
2022-10-05T18:28:12.498Z,70.03
2022-10-05T18:31:05.430Z,69.13
2022-10-05T18:33:54.623Z,69.85
2022-10-05T18:36:36.904Z,70.69
2022-10-05T18:39:35.503Z,70.18
2022-10-05T18:42:25.293Z,68.75
2022-10-05T18:44:56.011Z,69.81
2022-10-05T18:47:30.316Z,69.57
2022-10-05T18:49:59.801Z,70.71
2022-10-05T18:53:05.598Z,69.32
2022-10-05T18:55:39.238Z,70.77
2022-10-05T18:58:26.236Z,69.07
2022-10-05T19:01:19.705Z,68.52
2022-10-05T19:04:12.589Z,69.43
2022-10-05T19:07:05.721Z,70.04
2022-10-05T19:09:34.954Z,67.57
2022-10-05T19:12:09.999Z,70.25
2022-10-05T19:14:42.339Z,70.31
2022-10-05T19:17:29.598Z,69.24
2022-10-05T19:20:10.013Z,69.73
2022-10-05T19:23:00.090Z,69.35
2022-10-05T19:25:51.958Z,70.66
2022-10-05T19:28:25.081Z,70.71
2022-10-05T19:31:13.170Z,68.81
2022-10-05T19:34:04.449Z,68.50
2022-10-05T19:36:52.781Z,69.89
2022-10-05T19:39:51.553Z,68.61
2022-10-05T19:42:27.274Z,68.32
2022-10-05T19:45:11.748Z,69.26
2022-10-05T19:47:41.155Z,69.34
2022-10-05T19:50:23.265Z,69.02
2022-10-05T19:52:52.017Z,68.80
2022-10-05T19:55:22.320Z,69.09
2022-10-05T19:57:50.820Z,68.90
2022-10-05T20:00:33.018Z,69.37
2022-10-05T20:03:18.993Z,67.69
2022-10-05T20:05:45.958Z,69.39
2022-10-05T20:08:31.851Z,68.45
2022-10-05T20:11:05.958Z,68.75
2022-10-05T20:13:35.057Z,68.15
2022-10-05T20:16:35.678Z,68.56
2022-10-05T20:19:44.993Z,68.51
2022-10-05T20:22:24.896Z,68.45
2022-10-05T20:24:53.935Z,68.41
2022-10-05T20:27:42.427Z,68.40
2022-10-05T20:30:11.306Z,69.25
2022-10-05T20:32:38.515Z,68.29
2022-10-05T20:35:07.370Z,68.12
2022-10-05T20:37:34.332Z,68.00
2022-10-05T20:40:00.768Z,68.89
2022-10-05T20:42:27.233Z,68.70
2022-10-05T20:44:56.828Z,68.85
2022-10-05T20:47:25.561Z,69.27
2022-10-05T20:49:55.496Z,69.15
2022-10-05T20:52:23.620Z,68.13
2022-10-05T20:54:53.837Z,68.17
2022-10-05T20:57:21.824Z,68.44
2022-10-05T20:59:48.784Z,68.39
2022-10-05T21:02:15.898Z,69.60
2022-10-05T21:04:47.462Z,69.06
2022-10-05T21:07:16.767Z,70.18
2022-10-05T21:09:46.640Z,69.85
2022-10-05T21:12:14.005Z,68.39
2022-10-05T21:14:40.647Z,68.26
2022-10-05T21:17:07.232Z,69.40
2022-10-05T21:19:38.387Z,68.83
2022-10-05T21:22:12.306Z,69.44
2022-10-05T21:24:40.773Z,70.08
2022-10-05T21:27:08.089Z,69.48
2022-10-05T21:29:35.779Z,70.55
2022-10-05T21:32:02.672Z,70.66
2022-10-05T21:34:29.459Z,70.22
2022-10-05T21:36:56.561Z,70.82
2022-10-05T21:39:23.681Z,73.52
2022-10-05T21:41:50.375Z,74.97
2022-10-05T21:44:16.916Z,76.51
2022-10-05T21:46:43.480Z,76.87
2022-10-05T21:49:10.027Z,76.38
2022-10-05T21:51:37.308Z,75.23
2022-10-05T21:54:09.895Z,76.24
2022-10-05T21:56:38.689Z,76.32
2022-10-05T21:59:08.278Z,78.30
2022-10-05T22:01:36.058Z,77.94
2022-10-05T22:04:06.231Z,77.83
2022-10-05T22:06:33.477Z,75.49
2022-10-05T22:09:00.098Z,77.03
2022-10-05T22:11:27.171Z,77.24
2022-10-05T22:13:54.042Z,77.69
2022-10-05T22:16:22.120Z,76.52
2022-10-05T22:18:49.333Z,76.38
2022-10-05T22:21:16.077Z,76.40
2022-10-05T22:23:45.080Z,75.76
2022-10-05T22:26:13.612Z,75.06
2022-10-05T22:28:40.429Z,74.00
2022-10-05T22:31:08.121Z,76.30
2022-10-05T22:33:34.646Z,76.05
2022-10-05T22:36:01.413Z,75.75
2022-10-05T22:38:30.525Z,76.41
2022-10-05T22:40:57.801Z,76.61
2022-10-05T22:43:27.015Z,76.58
2022-10-05T22:45:54.172Z,76.10
2022-10-05T22:48:21.469Z,78.52
2022-10-05T22:50:48.040Z,77.19
2022-10-05T22:53:14.492Z,78.23
2022-10-05T22:55:40.990Z,78.43
2022-10-05T22:58:07.560Z,78.40
2022-10-05T23:00:56.457Z,78.24
2022-10-05T23:03:20.477Z,77.21
2022-10-05T23:05:46.923Z,76.58
2022-10-05T23:08:13.349Z,76.44
2022-10-05T23:10:39.808Z,77.42
2022-10-05T23:13:06.293Z,79.60
2022-10-05T23:15:33.817Z,77.13
2022-10-05T23:18:00.315Z,77.29
2022-10-05T23:20:26.983Z,76.91
2022-10-05T23:22:53.793Z,75.40
2022-10-05T23:25:22.216Z,76.79
2022-10-05T23:27:48.795Z,74.90
2022-10-05T23:30:15.569Z,73.99
2022-10-05T23:32:43.572Z,74.47
2022-10-05T23:35:13.604Z,73.03
2022-10-05T23:37:44.821Z,72.52
2022-10-05T23:40:13.101Z,72.48
2022-10-05T23:42:42.961Z,73.50
2022-10-05T23:45:10.713Z,74.22
2022-10-05T23:47:37.642Z,73.10
2022-10-05T23:50:07.040Z,72.07
2022-10-05T23:52:34.425Z,73.19
2022-10-05T23:55:01.796Z,74.62
2022-10-05T23:57:28.302Z,71.95
2022-10-05T23:59:56.264Z,73.36
